createdAt,value
2022-12-03T00:00:59.115Z,40.00
2022-12-03T00:03:30.972Z,44.33
2022-12-03T00:06:01.972Z,40.40
2022-12-03T00:08:32.178Z,41.87
2022-12-03T00:11:02.495Z,48.58
2022-12-03T00:13:32.750Z,46.88
2022-12-03T00:16:03.555Z,42.17
2022-12-03T00:18:35.138Z,41.60
2022-12-03T00:21:05.660Z,42.83
2022-12-03T00:23:41.483Z,46.85
2022-12-03T00:26:12.891Z,43.05
2022-12-03T00:28:42.940Z,46.13
2022-12-03T00:31:13.489Z,48.90
2022-12-03T00:33:45.189Z,40.58
2022-12-03T00:36:15.551Z,44.63
2022-12-03T00:38:45.889Z,34.53
2022-12-03T00:41:16.669Z,34.88
2022-12-03T00:43:46.722Z,41.92
2022-12-03T00:46:21.059Z,43.08
2022-12-03T00:48:53.299Z,45.13
2022-12-03T00:51:23.979Z,46.53
2022-12-03T00:53:54.101Z,42.53
2022-12-03T00:56:25.259Z,42.08
2022-12-03T00:58:55.391Z,44.80
2022-12-03T01:01:25.771Z,42.78
2022-12-03T01:03:57.531Z,40.97
2022-12-03T01:06:27.931Z,43.42
2022-12-03T01:08:58.462Z,42.58
2022-12-03T01:11:41.710Z,39.70
2022-12-03T01:14:13.562Z,44.75
2022-12-03T01:16:44.045Z,40.63
2022-12-03T01:19:17.528Z,39.08
2022-12-03T01:21:51.009Z,44.38
2022-12-03T01:24:21.829Z,40.90
2022-12-03T01:26:52.277Z,36.35
2022-12-03T01:29:22.692Z,45.10
2022-12-03T01:32:10.379Z,40.85
2022-12-03T01:34:41.770Z,38.40
2022-12-03T01:37:12.382Z,40.10
2022-12-03T01:39:42.630Z,45.42
2022-12-03T01:42:18.002Z,38.08
2022-12-03T01:44:49.299Z,45.15
2022-12-03T01:47:21.761Z,43.90
2022-12-03T01:49:56.768Z,36.08
2022-12-03T01:52:32.044Z,39.55
2022-12-03T01:55:05.400Z,40.25
2022-12-03T01:57:42.950Z,33.67
2022-12-03T02:00:17.489Z,38.28
2022-12-03T02:02:50.191Z,41.88
2022-12-03T02:05:24.290Z,36.72
2022-12-03T02:07:56.868Z,33.83
2022-12-03T02:10:30.100Z,41.65
2022-12-03T02:13:04.441Z,38.67
2022-12-03T02:15:34.980Z,40.47
2022-12-03T02:18:05.641Z,38.22
2022-12-03T02:20:45.020Z,36.63
2022-12-03T02:23:25.881Z,36.83
2022-12-03T02:25:57.385Z,35.28
2022-12-03T02:28:28.049Z,39.47
2022-12-03T02:30:58.079Z,49.97
2022-12-03T02:33:28.782Z,43.70
2022-12-03T02:36:03.327Z,46.95
2022-12-03T02:38:36.580Z,37.65
2022-12-03T02:41:33.172Z,37.70
2022-12-03T02:44:03.211Z,36.80
2022-12-03T02:46:33.829Z,39.85
2022-12-03T02:49:07.341Z,40.25
2022-12-03T02:51:37.699Z,46.63
2022-12-03T02:54:08.050Z,45.55
2022-12-03T02:56:39.571Z,39.30
2022-12-03T02:59:09.879Z,46.80
2022-12-03T03:01:40.127Z,42.95
2022-12-03T03:04:10.551Z,44.83
2022-12-03T03:06:40.651Z,47.35
2022-12-03T03:09:11.289Z,43.65
2022-12-03T03:11:42.791Z,60.17
2022-12-03T03:14:13.789Z,45.70
2022-12-03T03:16:44.152Z,43.23
2022-12-03T03:19:14.570Z,42.92
2022-12-03T03:21:44.663Z,37.53
2022-12-03T03:24:14.939Z,40.70
2022-12-03T03:26:46.809Z,37.55
2022-12-03T03:29:17.448Z,41.67
2022-12-03T03:31:48.881Z,39.88
2022-12-03T03:36:49.148Z,39.33
2022-12-03T03:39:19.510Z,47.40
2022-12-03T03:41:51.126Z,39.83
2022-12-03T03:44:21.500Z,41.22
2022-12-03T03:46:51.689Z,37.65
2022-12-03T03:49:22.186Z,34.20
2022-12-03T03:51:52.561Z,36.60
2022-12-03T03:54:23.471Z,37.53
2022-12-03T03:56:57.690Z,39.17
2022-12-03T03:59:28.460Z,40.85
2022-12-03T04:01:58.577Z,40.67
2022-12-03T04:04:33.545Z,36.13
2022-12-03T04:07:03.800Z,43.65
2022-12-03T04:09:34.085Z,38.08
2022-12-03T04:12:23.247Z,36.35
2022-12-03T04:14:53.826Z,41.30
2022-12-03T04:17:24.109Z,49.28
2022-12-03T04:19:54.543Z,41.13
2022-12-03T04:22:41.830Z,37.65
2022-12-03T04:25:30.261Z,35.38
2022-12-03T04:28:18.770Z,38.70
2022-12-03T04:30:49.130Z,35.15
2022-12-03T04:33:36.361Z,46.55
2022-12-03T04:36:07.097Z,37.45
2022-12-03T04:38:36.984Z,35.95
2022-12-03T04:41:07.340Z,38.42
2022-12-03T04:43:58.878Z,37.25
2022-12-03T04:46:29.364Z,34.22
2022-12-03T04:48:59.437Z,41.33
2022-12-03T04:51:29.969Z,41.58
2022-12-03T04:53:59.937Z,30.83
2022-12-03T04:56:30.705Z,44.17
2022-12-03T04:59:02.147Z,36.33
2022-12-03T05:01:32.645Z,43.35
2022-12-03T05:04:03.407Z,46.13
2022-12-03T05:06:33.796Z,40.72
2022-12-03T05:09:04.052Z,34.78
2022-12-03T05:11:34.537Z,39.70
2022-12-03T05:14:06.507Z,46.60
2022-12-03T05:16:37.133Z,42.97
2022-12-03T05:19:09.090Z,46.50
2022-12-03T05:21:39.450Z,39.97
2022-12-03T05:24:09.676Z,44.60
2022-12-03T05:26:40.266Z,48.72
2022-12-03T05:29:11.849Z,45.33
2022-12-03T05:31:42.279Z,47.10
2022-12-03T05:34:12.375Z,53.70
2022-12-03T05:36:42.787Z,51.47
2022-12-03T05:39:12.945Z,42.72
2022-12-03T05:42:00.569Z,52.00
2022-12-03T05:44:32.435Z,43.13
2022-12-03T05:47:03.087Z,48.53
2022-12-03T05:49:33.176Z,50.85
2022-12-03T05:52:03.520Z,50.08
2022-12-03T05:54:33.659Z,50.25
2022-12-03T05:57:04.066Z,48.67
2022-12-03T05:59:36.540Z,52.50
2022-12-03T06:02:07.216Z,54.38
2022-12-03T06:04:37.262Z,49.55
2022-12-03T06:07:12.482Z,50.13
2022-12-03T06:09:43.998Z,46.17
2022-12-03T06:12:14.408Z,54.10
2022-12-03T06:14:45.929Z,41.83
2022-12-03T06:17:16.366Z,40.53
2022-12-03T06:19:46.349Z,54.22
2022-12-03T06:22:16.849Z,43.03
2022-12-03T06:24:46.989Z,39.83
2022-12-03T06:27:17.579Z,49.17
2022-12-03T06:29:49.119Z,55.85
2022-12-03T06:32:19.568Z,60.72
2022-12-03T06:34:49.719Z,56.40
2022-12-03T06:37:20.231Z,51.90
2022-12-03T06:39:50.300Z,54.08
2022-12-03T06:42:21.050Z,60.58
2022-12-03T06:44:52.996Z,57.10
2022-12-03T06:47:23.638Z,47.75
2022-12-03T06:49:53.820Z,49.63
2022-12-03T06:52:25.251Z,48.08
2022-12-03T06:54:55.385Z,42.92
2022-12-03T06:57:26.029Z,49.97
2022-12-03T06:59:57.611Z,47.78
2022-12-03T07:02:28.066Z,45.90
2022-12-03T07:04:58.748Z,47.42
2022-12-03T07:07:29.419Z,46.53
2022-12-03T07:09:59.660Z,51.65
2022-12-03T07:12:30.250Z,46.73
2022-12-03T07:15:01.879Z,46.40
2022-12-03T07:17:33.011Z,48.90
2022-12-03T07:20:04.978Z,47.75
2022-12-03T07:22:36.122Z,51.78
2022-12-03T07:25:06.779Z,52.72
2022-12-03T07:27:40.421Z,50.53
2022-12-03T07:30:16.131Z,53.53
2022-12-03T07:32:46.510Z,52.55
2022-12-03T07:35:16.791Z,50.03
2022-12-03T07:37:47.411Z,51.90
2022-12-03T07:40:17.749Z,45.13
2022-12-03T07:42:48.507Z,47.53
2022-12-03T07:45:20.328Z,51.92
2022-12-03T07:47:50.780Z,50.22
2022-12-03T07:50:20.882Z,48.90
2022-12-03T07:52:51.332Z,51.70
2022-12-03T07:55:21.687Z,47.88
2022-12-03T07:57:52.833Z,54.55
2022-12-03T08:00:25.671Z,53.72
2022-12-03T08:02:56.270Z,58.33
2022-12-03T08:05:27.048Z,50.60
2022-12-03T08:07:58.293Z,46.00
2022-12-03T08:10:28.450Z,51.25
2022-12-03T08:13:01.589Z,47.37
2022-12-03T08:15:39.282Z,46.67
2022-12-03T08:18:16.539Z,41.50
2022-12-03T08:20:49.853Z,44.28
2022-12-03T08:23:25.630Z,46.90
2022-12-03T08:25:56.319Z,48.00
2022-12-03T08:28:28.197Z,50.30
2022-12-03T08:31:08.005Z,46.17
2022-12-03T08:33:40.554Z,42.50
2022-12-03T08:36:16.847Z,41.50
2022-12-03T08:38:53.109Z,44.92
2022-12-03T08:41:39.012Z,46.63
2022-12-03T08:44:23.841Z,55.92
2022-12-03T08:47:04.138Z,48.45
2022-12-03T08:49:34.654Z,50.05
2022-12-03T08:52:14.289Z,47.72
2022-12-03T08:54:45.550Z,48.63
2022-12-03T08:57:29.035Z,50.42
2022-12-03T09:00:16.411Z,49.28
2022-12-03T09:02:53.229Z,48.33
2022-12-03T09:05:30.198Z,53.45
2022-12-03T09:08:00.964Z,51.60
2022-12-03T09:10:32.215Z,54.60
2022-12-03T09:13:04.091Z,54.92
2022-12-03T09:15:36.079Z,49.97
2022-12-03T09:18:08.714Z,53.53
2022-12-03T09:20:42.453Z,48.50
2022-12-03T09:23:13.379Z,60.08
2022-12-03T09:25:43.917Z,59.88
2022-12-03T09:28:14.143Z,47.08
2022-12-03T09:30:44.690Z,60.47
2022-12-03T09:33:16.390Z,57.08
2022-12-03T09:35:51.026Z,70.30
2022-12-03T09:38:22.187Z,60.72
2022-12-03T09:40:52.817Z,60.80
2022-12-03T09:43:24.586Z,58.35
2022-12-03T09:46:01.692Z,64.43
2022-12-03T09:48:33.977Z,61.95
2022-12-03T09:51:05.902Z,53.13
2022-12-03T09:53:40.979Z,59.47
2022-12-03T09:56:25.889Z,62.38
2022-12-03T09:58:56.020Z,53.53
2022-12-03T10:01:30.360Z,58.67
2022-12-03T10:04:03.516Z,58.03
2022-12-03T10:06:34.452Z,56.65
2022-12-03T10:09:06.456Z,58.75
2022-12-03T10:11:38.328Z,61.83
2022-12-03T10:14:11.369Z,66.05
2022-12-03T10:16:43.774Z,64.47
2022-12-03T10:19:25.057Z,59.58
2022-12-03T10:24:29.905Z,68.60
2022-12-03T10:27:04.435Z,59.85
2022-12-03T10:29:37.316Z,65.13
2022-12-03T10:32:10.203Z,65.00
2022-12-03T10:34:43.351Z,56.83
2022-12-03T10:37:16.959Z,55.75
2022-12-03T10:39:59.161Z,62.13
2022-12-03T10:42:31.170Z,60.75
2022-12-03T10:45:16.599Z,64.80
2022-12-03T10:48:07.396Z,65.50
2022-12-03T10:50:39.550Z,61.72
2022-12-03T10:53:12.729Z,62.50
2022-12-03T10:55:46.091Z,66.90
2022-12-03T10:58:24.992Z,75.30
2022-12-03T11:00:57.499Z,58.53
2022-12-03T11:03:29.711Z,57.42
2022-12-03T11:06:04.390Z,59.83
2022-12-03T11:08:39.477Z,62.38
2022-12-03T11:11:18.301Z,67.30
2022-12-03T11:13:52.174Z,65.47
2022-12-03T11:17:06.289Z,69.60
2022-12-03T11:19:52.440Z,65.90
2022-12-03T11:22:46.675Z,61.55
2022-12-03T11:25:49.829Z,61.38
2022-12-03T11:28:54.342Z,63.53
2022-12-03T11:31:40.161Z,65.80
2022-12-03T11:34:50.847Z,61.45
2022-12-03T11:37:27.914Z,66.67
2022-12-03T11:40:27.228Z,73.85
2022-12-03T11:42:58.287Z,67.60
2022-12-03T11:45:35.678Z,62.38
2022-12-03T11:48:14.125Z,71.85
2022-12-03T11:50:53.539Z,69.57
2022-12-03T11:53:27.474Z,66.07
2022-12-03T11:56:09.536Z,69.38
2022-12-03T11:58:43.979Z,64.55
2022-12-03T12:01:16.406Z,69.38
2022-12-03T12:03:49.476Z,64.88
2022-12-03T12:06:21.496Z,70.05
2022-12-03T12:09:00.199Z,75.70
2022-12-03T12:11:33.298Z,73.07
2022-12-03T12:14:05.308Z,69.53
2022-12-03T12:16:46.328Z,73.00
2022-12-03T12:19:37.807Z,64.13
2022-12-03T12:22:33.258Z,72.15
2022-12-03T12:25:05.550Z,64.90
2022-12-03T12:27:41.320Z,52.03
2022-12-03T12:30:18.164Z,63.50
2022-12-03T12:32:50.380Z,57.97
2022-12-03T12:35:23.006Z,61.17
2022-12-03T12:37:59.692Z,61.97
2022-12-03T12:40:33.933Z,56.53
2022-12-03T12:43:15.330Z,57.25
2022-12-03T12:45:47.435Z,53.85
2022-12-03T12:48:28.057Z,56.08
2022-12-03T12:51:03.664Z,51.78
2022-12-03T12:53:35.448Z,56.00
2022-12-03T12:56:15.071Z,60.55
2022-12-03T12:58:47.117Z,58.30
2022-12-03T13:01:24.182Z,55.47
2022-12-03T13:03:56.950Z,54.22
2022-12-03T13:06:29.897Z,59.47
2022-12-03T13:09:01.425Z,53.83
2022-12-03T13:11:41.548Z,53.92
2022-12-03T13:14:18.457Z,51.40
2022-12-03T13:16:50.357Z,59.15
2022-12-03T13:19:25.864Z,60.58
2022-12-03T13:21:57.696Z,55.33
2022-12-03T13:24:33.684Z,60.00
2022-12-03T13:27:11.099Z,55.08
2022-12-03T13:29:43.158Z,59.50
2022-12-03T13:32:16.205Z,51.55
2022-12-03T13:34:47.687Z,64.30
2022-12-03T13:37:22.559Z,56.78
2022-12-03T13:39:54.352Z,52.13
2022-12-03T13:42:42.518Z,50.45
2022-12-03T13:45:33.398Z,57.35
2022-12-03T13:48:15.549Z,49.55
2022-12-03T13:50:46.469Z,50.35
2022-12-03T13:53:24.105Z,53.00
2022-12-03T13:55:58.559Z,53.97
2022-12-03T13:58:29.237Z,48.05
2022-12-03T14:01:01.838Z,51.15
2022-12-03T14:03:32.379Z,57.17
2022-12-03T14:06:02.369Z,51.72
2022-12-03T14:08:37.662Z,51.83
2022-12-03T14:11:08.289Z,57.63
2022-12-03T14:13:39.040Z,51.63
2022-12-03T14:16:11.424Z,52.85
2022-12-03T14:18:42.510Z,50.30
2022-12-03T14:21:13.178Z,52.22
2022-12-03T14:23:43.817Z,50.80
2022-12-03T14:26:14.223Z,57.75
2022-12-03T14:28:45.015Z,50.22
2022-12-03T14:31:19.311Z,55.38
2022-12-03T14:33:49.732Z,51.45
2022-12-03T14:36:20.394Z,55.58
2022-12-03T14:38:51.312Z,53.45
2022-12-03T14:41:39.485Z,53.65
2022-12-03T14:44:10.676Z,53.67
2022-12-03T14:46:43.290Z,55.53
2022-12-03T14:49:15.137Z,48.92
2022-12-03T14:51:47.847Z,55.33
2022-12-03T14:54:19.047Z,57.38
2022-12-03T14:56:49.886Z,56.38
2022-12-03T14:59:26.042Z,59.50
2022-12-03T15:02:00.857Z,59.30
2022-12-03T15:04:31.868Z,63.65
2022-12-03T15:07:01.953Z,71.32
2022-12-03T15:09:32.656Z,57.70
2022-12-03T15:12:02.936Z,57.85
2022-12-03T15:14:33.541Z,59.13
2022-12-03T15:17:05.125Z,54.17
2022-12-03T15:19:35.716Z,58.70
2022-12-03T15:22:05.955Z,61.03
2022-12-03T15:24:36.986Z,57.28
2022-12-03T15:27:07.295Z,64.65
2022-12-03T15:29:37.885Z,68.18
2022-12-03T15:32:09.535Z,58.88
2022-12-03T15:34:40.305Z,54.60
2022-12-03T15:37:11.386Z,59.77
2022-12-03T15:39:48.132Z,60.70
2022-12-03T15:42:18.935Z,63.67
2022-12-03T15:44:49.296Z,60.03
2022-12-03T15:47:20.854Z,64.15
2022-12-03T15:49:51.493Z,58.90
2022-12-03T15:52:22.305Z,58.33
2022-12-03T15:54:52.917Z,61.72
2022-12-03T15:57:23.084Z,61.47
2022-12-03T15:59:54.846Z,58.85
2022-12-03T16:04:57.108Z,53.83
2022-12-03T16:07:27.469Z,64.35
2022-12-03T16:09:58.164Z,63.17
2022-12-03T16:12:28.327Z,56.50
2022-12-03T16:14:59.322Z,65.95
2022-12-03T16:17:31.937Z,57.90
2022-12-03T16:20:03.005Z,64.38
2022-12-03T16:22:33.430Z,73.00
2022-12-03T16:25:05.409Z,64.93
2022-12-03T16:27:37.287Z,63.03
2022-12-03T16:30:09.729Z,60.63
2022-12-03T16:32:41.968Z,64.13
2022-12-03T16:35:12.321Z,63.33
2022-12-03T16:37:42.746Z,57.97
2022-12-03T16:40:13.956Z,72.78
2022-12-03T16:42:43.936Z,66.88
2022-12-03T16:45:31.876Z,58.70
2022-12-03T16:48:04.116Z,55.92
2022-12-03T16:50:37.894Z,63.72
2022-12-03T16:53:08.057Z,63.50
2022-12-03T16:55:38.573Z,62.00
2022-12-03T16:58:08.897Z,68.88
2022-12-03T17:00:39.375Z,69.07
2022-12-03T17:03:11.427Z,66.50
2022-12-03T17:05:41.985Z,64.60
2022-12-03T17:08:11.904Z,60.00
2022-12-03T17:10:43.743Z,62.38
2022-12-03T17:15:45.257Z,58.70
2022-12-03T17:18:17.536Z,69.47
2022-12-03T17:20:48.309Z,67.80
2022-12-03T17:23:19.225Z,61.22
2022-12-03T17:25:49.936Z,69.18
2022-12-03T17:28:21.488Z,71.15
2022-12-03T17:30:51.990Z,67.55
2022-12-03T17:33:24.465Z,75.80
2022-12-03T17:35:55.066Z,66.82
2022-12-03T17:38:26.286Z,67.20
2022-12-03T17:41:00.620Z,64.38
2022-12-03T17:43:33.588Z,69.20
2022-12-03T17:46:05.411Z,64.28
2022-12-03T17:48:40.887Z,73.28
2022-12-03T17:51:11.504Z,74.32
2022-12-03T17:53:41.725Z,72.78
2022-12-03T17:56:12.128Z,76.63
2022-12-03T17:58:42.646Z,76.40
2022-12-03T18:01:13.046Z,76.72
2022-12-03T18:03:44.626Z,74.20
2022-12-03T18:06:15.256Z,88.82
2022-12-03T18:08:45.436Z,88.70
2022-12-03T18:11:15.925Z,75.67
2022-12-03T18:13:46.047Z,67.20
2022-12-03T18:16:16.952Z,84.75
2022-12-03T18:18:53.654Z,83.65
2022-12-03T18:21:28.569Z,82.43
2022-12-03T18:24:00.335Z,87.30
2022-12-03T18:26:31.175Z,77.85
2022-12-03T18:29:01.405Z,72.20
2022-12-03T18:31:32.060Z,76.18
2022-12-03T18:34:03.971Z,77.47
2022-12-03T18:36:38.305Z,78.05
2022-12-03T18:39:10.046Z,75.05
2022-12-03T18:41:40.942Z,69.93
2022-12-03T18:44:13.845Z,74.65
2022-12-03T18:46:54.688Z,83.13
2022-12-03T18:49:28.900Z,78.60
2022-12-03T18:52:05.190Z,69.90
2022-12-03T18:54:42.129Z,79.82
2022-12-03T18:57:18.207Z,83.45
2022-12-03T18:59:58.752Z,79.80
2022-12-03T19:03:02.390Z,81.30
2022-12-03T19:05:24.787Z,73.95
2022-12-03T19:08:01.980Z,92.95
2022-12-03T19:10:37.380Z,81.95
2022-12-03T19:13:10.891Z,73.10
2022-12-03T19:15:41.610Z,87.95
2022-12-03T19:18:12.356Z,78.07
2022-12-03T19:20:47.228Z,83.88
2022-12-03T19:23:18.223Z,84.15
2022-12-03T19:25:57.970Z,84.97
2022-12-03T19:28:29.515Z,77.13
2022-12-03T19:31:01.141Z,80.50
2022-12-03T19:33:32.355Z,80.25
2022-12-03T19:36:05.556Z,87.15
2022-12-03T19:38:36.514Z,74.72
2022-12-03T19:41:08.315Z,81.03
2022-12-03T19:43:41.505Z,72.60
2022-12-03T19:46:13.722Z,88.25
2022-12-03T19:48:44.636Z,80.65
2022-12-03T19:51:34.309Z,76.10
2022-12-03T19:54:07.707Z,89.30
2022-12-03T19:56:37.813Z,81.97
2022-12-03T19:59:08.529Z,98.03
2022-12-03T20:01:41.039Z,70.57
2022-12-03T20:04:12.625Z,77.05
2022-12-03T20:06:45.653Z,76.80
2022-12-03T20:09:18.173Z,72.78
2022-12-03T20:11:51.684Z,77.50
2022-12-03T20:14:22.445Z,79.15
2022-12-03T20:16:52.497Z,70.25
2022-12-03T20:19:23.184Z,72.40
2022-12-03T20:22:00.752Z,74.90
2022-12-03T20:24:33.136Z,75.88
2022-12-03T20:27:03.395Z,72.07
2022-12-03T20:29:33.765Z,89.00
2022-12-03T20:32:04.417Z,66.43
2022-12-03T20:34:36.393Z,71.60
2022-12-03T20:39:38.316Z,73.40
2022-12-03T20:42:10.475Z,75.50
2022-12-03T20:44:41.230Z,72.88
2022-12-03T20:47:11.485Z,61.42
2022-12-03T20:49:41.963Z,68.53
2022-12-03T20:52:13.598Z,80.50
2022-12-03T20:54:44.116Z,74.57
2022-12-03T20:57:14.785Z,72.20
2022-12-03T20:59:47.094Z,74.35
2022-12-03T21:02:18.103Z,79.53
2022-12-03T21:04:50.746Z,81.20
2022-12-03T21:07:23.265Z,72.32
2022-12-03T21:09:54.259Z,84.20
2022-12-03T21:12:24.696Z,87.15
2022-12-03T21:14:55.285Z,83.53
2022-12-03T21:17:25.630Z,80.78
2022-12-03T21:19:57.200Z,76.05
2022-12-03T21:25:00.511Z,72.15
2022-12-03T21:27:32.997Z,72.55
2022-12-03T21:30:12.997Z,75.10
2022-12-03T21:32:45.965Z,85.43
2022-12-03T21:35:16.577Z,87.68
2022-12-03T21:37:50.548Z,80.38
2022-12-03T21:40:25.405Z,82.88
2022-12-03T21:43:01.363Z,80.78
2022-12-03T21:45:45.058Z,80.20
2022-12-03T21:48:20.032Z,75.20
2022-12-03T21:51:06.002Z,85.43
2022-12-03T21:53:43.689Z,70.72
2022-12-03T21:56:17.867Z,71.00
2022-12-03T21:58:49.077Z,68.30
2022-12-03T22:01:22.613Z,72.57
2022-12-03T22:03:53.574Z,82.25
2022-12-03T22:06:26.454Z,72.75
2022-12-03T22:08:59.998Z,79.10
2022-12-03T22:11:32.338Z,81.80
2022-12-03T22:14:07.168Z,76.95
2022-12-03T22:16:39.813Z,77.40
2022-12-03T22:19:11.070Z,86.65
2022-12-03T22:21:42.262Z,92.50
2022-12-03T22:24:14.112Z,79.15
2022-12-03T22:26:45.130Z,78.95
2022-12-03T22:29:15.296Z,73.45
2022-12-03T22:31:47.083Z,82.43
2022-12-03T22:34:17.136Z,80.50
2022-12-03T22:36:48.630Z,77.65
2022-12-03T22:39:20.704Z,66.10
2022-12-03T22:41:51.558Z,71.75
2022-12-03T22:44:21.908Z,79.90
2022-12-03T22:46:52.511Z,82.47
2022-12-03T22:49:22.905Z,77.60
2022-12-03T22:51:53.517Z,72.85
2022-12-03T22:54:25.117Z,75.53
2022-12-03T22:56:55.584Z,67.30
2022-12-03T22:59:26.084Z,66.97
2022-12-03T23:01:56.855Z,71.28
2022-12-03T23:04:27.126Z,72.38
2022-12-03T23:06:58.253Z,68.20
2022-12-03T23:09:30.135Z,67.35
2022-12-03T23:12:00.643Z,70.53
2022-12-03T23:14:31.776Z,76.00
2022-12-03T23:17:02.667Z,71.95
2022-12-03T23:19:33.007Z,76.60
2022-12-03T23:22:03.607Z,75.85
2022-12-03T23:24:36.026Z,74.70
2022-12-03T23:27:06.803Z,73.10
2022-12-03T23:29:37.307Z,72.43
2022-12-03T23:32:08.013Z,71.45
2022-12-03T23:34:38.820Z,80.88
2022-12-03T23:37:10.218Z,78.88
2022-12-03T23:39:41.839Z,72.93
2022-12-03T23:42:12.245Z,71.22
2022-12-03T23:44:42.168Z,76.45
2022-12-03T23:47:12.536Z,75.18
2022-12-03T23:49:42.636Z,70.32
2022-12-03T23:52:13.078Z,68.90
2022-12-03T23:54:44.679Z,63.50
2022-12-03T23:57:16.238Z,65.72
2022-12-03T23:59:46.365Z,70.72
